Time;durP1;ratioP1;P1;durP2;ratioP2;P2;SDS_P1;SDS_P2;PMS_P1;PMS_P2;Temp;Humidity;BMP_temperature;BMP_pressure;BME280_temperature;BME280_humidity;BME280_pressure;Samples;Min_cycle;Max_cycle;Signal;HPM_P1;HPM_P2
2022/08/12 00:45:04;;;;;;;1.77;0.80;;;19.20;91.60;;;;;;5088712;28;20046;-74
2022/08/12 00:47:32;;;;;;;2.10;1.10;;;19.20;91.70;;;;;;5087819;28;20033;-74
2022/08/12 00:49:58;;;;;;;1.15;0.73;;;19.10;91.90;;;;;;5082619;28;20401;-74
2022/08/12 00:52:24;;;;;;;1.13;0.73;;;19.20;92.00;;;;;;5080022;28;20043;-74
2022/08/12 00:54:58;;;;;;;1.95;0.93;;;19.00;92.10;;;;;;5086655;28;20482;-74
2022/08/12 00:57:30;;;;;;;1.63;0.93;;;19.00;92.50;;;;;;5095267;28;20036;-74
2022/08/12 01:00:04;;;;;;;1.80;0.98;;;18.90;92.60;;;;;;5077859;28;20040;-74
2022/08/12 01:02:38;;;;;;;2.42;1.00;;;18.90;92.80;;;;;;5097869;28;20150;-74
2022/08/12 01:13:22;;;;;;;1.77;0.93;;;18.70;93.10;;;;;;5097748;28;20493;-74
2022/08/12 01:15:55;;;;;;;1.63;0.88;;;18.70;93.20;;;;;;5091607;28;20043;-74
2022/08/12 01:18:25;;;;;;;1.98;0.90;;;18.70;93.30;;;;;;5093221;27;20032;-74
2022/08/12 01:20:50;;;;;;;1.58;0.90;;;18.60;93.40;;;;;;5082575;28;20173;-74
2022/08/12 01:23:48;;;;;;;1.70;0.90;;;18.60;93.50;;;;;;5088723;28;20122;-74
2022/08/12 01:26:22;;;;;;;2.15;1.08;;;18.60;94.40;;;;;;5079144;28;20561;-74
2022/08/12 01:28:53;;;;;;;1.60;0.85;;;18.50;94.10;;;;;;5084116;28;20039;-74
2022/08/12 01:31:19;;;;;;;1.45;0.95;;;18.50;94.00;;;;;;5073156;28;20036;-74
2022/08/12 01:33:58;;;;;;;3.00;1.27;;;18.50;94.00;;;;;;5089658;28;20393;-75
2022/08/12 01:36:29;;;;;;;1.77;0.98;;;18.50;94.70;;;;;;5088740;28;20032;-74
2022/08/12 01:38:58;;;;;;;3.47;1.10;;;18.50;94.30;;;;;;5084954;28;20059;-74
2022/08/12 01:41:29;;;;;;;3.53;1.17;;;18.40;94.40;;;;;;5095276;28;20047;-74
2022/08/12 01:43:59;;;;;;;1.98;1.10;;;18.40;94.60;;;;;;5083838;28;20097;-74
2022/08/12 01:46:39;;;;;;;1.88;1.00;;;18.40;94.40;;;;;;5084373;28;20044;-74
2022/08/12 01:49:39;;;;;;;2.28;1.10;;;18.40;95.00;;;;;;5082697;28;20059;-74
2022/08/12 01:52:06;;;;;;;4.57;1.33;;;18.40;95.40;;;;;;5079029;28;20466;-74
2022/08/12 01:54:42;;;;;;;1.30;0.90;;;18.40;94.70;;;;;;5068270;28;20031;-74
2022/08/12 01:57:11;;;;;;;2.58;1.30;;;18.30;95.30;;;;;;5080895;28;20131;-74
2022/08/12 01:59:49;;;;;;;2.42;1.10;;;18.30;94.80;;;;;;5084451;28;20059;-74
2022/08/12 02:02:18;;;;;;;2.20;1.23;;;18.30;94.90;;;;;;5098277;28;20079;-74
2022/08/12 02:11:31;;;;;;;3.35;1.52;;;18.20;96.10;;;;;;5082088;28;20040;-74
2022/08/12 02:14:20;;;;;;;2.08;0.95;;;18.20;96.20;;;;;;5081162;28;20528;-74
2022/08/12 02:17:04;;;;;;;2.20;1.15;;;18.10;95.50;;;;;;5089867;28;20040;-74
2022/08/12 02:19:53;;;;;;;2.15;0.95;;;18.10;95.40;;;;;;5079190;28;20040;-74
2022/08/12 02:22:29;;;;;;;2.45;1.25;;;18.20;96.30;;;;;;5081905;28;20051;-74
2022/08/12 02:25:05;;;;;;;2.25;1.00;;;18.10;95.90;;;;;;5091320;28;20048;-74
2022/08/12 02:27:41;;;;;;;3.35;1.40;;;18.10;95.60;;;;;;5085653;28;20036;-74
2022/08/12 02:30:09;;;;;;;3.03;1.58;;;18.00;96.10;;;;;;5078639;28;20036;-74
2022/08/12 02:32:39;;;;;;;2.60;1.33;;;18.00;96.00;;;;;;5085817;28;20048;-74
2022/08/12 02:35:28;;;;;;;2.65;1.38;;;17.90;96.00;;;;;;5063521;28;20043;-74
2022/08/12 02:37:57;;;;;;;2.30;1.27;;;18.10;97.00;;;;;;5084784;28;20507;-74
2022/08/12 02:40:25;;;;;;;2.17;1.25;;;18.10;95.90;;;;;;5083419;28;20067;-74
2022/08/12 02:43:01;;;;;;;2.22;1.00;;;18.10;95.90;;;;;;5088766;28;20046;-74
2022/08/12 02:45:44;;;;;;;3.72;1.70;;;18.00;96.40;;;;;;5081107;28;20161;-74
2022/08/12 02:48:17;;;;;;;1.92;1.00;;;18.00;96.70;;;;;;5081753;28;20067;-74
2022/08/12 02:50:49;;;;;;;2.45;1.42;;;17.80;96.40;;;;;;5087484;28;20123;-74
2022/08/12 02:53:16;;;;;;;5.93;1.23;;;17.90;96.40;;;;;;5086053;28;20481;-74
2022/08/12 02:55:44;;;;;;;2.53;0.90;;;17.80;96.40;;;;;;5088746;28;20047;-75
2022/08/12 02:58:11;;;;;;;1.98;1.00;;;17.90;96.40;;;;;;5083889;28;20508;-74
2022/08/12 03:00:38;;;;;;;1.63;1.02;;;17.80;96.50;;;;;;5081299;28;20035;-74
2022/08/12 03:03:07;;;;;;;1.92;1.17;;;17.70;96.70;;;;;;5096891;28;20036;-74
2022/08/12 03:05:50;;;;;;;2.60;1.80;;;17.80;96.90;;;;;;5086223;28;20047;-74
2022/08/12 03:08:22;;;;;;;2.53;1.20;;;17.80;97.30;;;;;;5076639;28;20031;-74
2022/08/12 03:10:51;;;;;;;2.72;1.33;;;17.70;97.20;;;;;;5085849;28;20040;-74
2022/08/12 03:13:22;;;;;;;2.03;1.08;;;17.70;97.10;;;;;;5079851;28;20043;-74
2022/08/12 03:15:48;;;;;;;2.63;1.33;;;17.70;97.10;;;;;;5086543;28;20032;-75
2022/08/12 03:18:21;;;;;;;2.40;1.10;;;17.70;97.10;;;;;;5095077;28;20069;-74
2022/08/12 03:20:47;;;;;;;1.85;1.00;;;17.70;97.40;;;;;;5077839;28;20127;-74
2022/08/12 03:23:14;;;;;;;3.30;1.60;;;17.70;97.30;;;;;;5098824;28;20049;-74
2022/08/12 03:25:42;;;;;;;3.40;1.25;;;17.70;97.40;;;;;;5097027;28;20580;-74
2022/08/12 03:28:10;;;;;;;2.15;1.20;;;17.60;97.40;;;;;;5077934;28;20481;-74
2022/08/12 03:30:37;;;;;;;2.58;1.33;;;17.60;97.40;;;;;;5085625;28;20052;-74
2022/08/12 03:33:05;;;;;;;3.55;1.55;;;17.60;97.40;;;;;;5093218;28;20043;-74
2022/08/12 03:35:32;;;;;;;2.70;1.15;;;17.60;97.60;;;;;;5079653;28;20036;-74
2022/08/12 03:38:10;;;;;;;2.58;1.50;;;17.60;97.60;;;;;;5085781;28;20040;-74
2022/08/12 04:00:23;;;;;;;2.75;1.55;;;17.50;98.00;;;;;;5086175;28;20044;-74
2022/08/12 04:03:50;;;;;;;2.85;1.45;;;17.50;98.00;;;;;;5079524;28;20052;-74
2022/08/12 04:05:49;;;;;;;2.40;1.17;;;17.50;98.10;;;;;;5084664;28;20048;-74
2022/08/12 04:08:16;;;;;;;4.28;1.73;;;17.50;98.10;;;;;;5070071;28;20103;-74
2022/08/12 04:13:27;;;;;;;1.80;1.00;;;17.50;98.10;;;;;;5095954;28;20239;-74
2022/08/12 04:15:52;;;;;;;3.00;1.42;;;17.50;98.20;;;;;;5089766;28;20044;-74
2022/08/12 04:18:18;;;;;;;4.25;1.80;;;17.50;98.10;;;;;;5092524;28;20135;-74
2022/08/12 04:20:48;;;;;;;3.08;1.40;;;17.50;98.20;;;;;;5087434;28;20051;-74
2022/08/12 04:23:14;;;;;;;2.67;1.52;;;17.50;98.20;;;;;;5093455;28;20930;-74
2022/08/12 04:25:40;;;;;;;2.30;1.30;;;17.50;98.30;;;;;;5089341;28;20040;-74
2022/08/12 04:28:08;;;;;;;2.92;1.40;;;17.40;98.20;;;;;;5089529;28;20763;-74
2022/08/12 04:30:35;;;;;;;2.60;1.30;;;17.40;98.30;;;;;;5087125;28;20126;-74
2022/08/12 04:33:01;;;;;;;1.90;1.00;;;17.30;98.40;;;;;;5076680;28;20046;-74
2022/08/12 04:35:27;;;;;;;2.25;1.17;;;17.20;98.40;;;;;;5102476;28;20047;-74
2022/08/12 04:37:54;;;;;;;2.45;1.50;;;17.20;98.50;;;;;;5092168;28;20082;-74
2022/08/12 04:40:24;;;;;;;3.08;1.42;;;17.10;98.50;;;;;;5072496;28;20074;-74
2022/08/12 04:42:51;;;;;;;2.80;1.23;;;17.10;99.10;;;;;;5100148;28;20063;-74
2022/08/12 04:45:17;;;;;;;2.13;1.10;;;17.10;98.70;;;;;;5090292;28;20151;-74
2022/08/12 04:47:43;;;;;;;2.45;1.45;;;17.10;98.90;;;;;;5096471;28;20036;-74
2022/08/12 04:50:10;;;;;;;4.07;1.67;;;17.00;99.00;;;;;;5092534;28;20035;-74
2022/08/12 04:52:35;;;;;;;3.72;1.25;;;17.00;99.00;;;;;;5086532;28;20040;-74
2022/08/12 04:55:02;;;;;;;3.85;1.20;;;17.00;99.00;;;;;;5086225;28;20032;-74
2022/08/12 04:57:27;;;;;;;2.83;1.35;;;17.10;99.20;;;;;;5088688;28;20472;-74
2022/08/12 04:59:53;;;;;;;3.00;1.48;;;17.10;99.20;;;;;;5100749;28;20036;-74
2022/08/12 05:02:19;;;;;;;1.92;1.20;;;17.10;99.20;;;;;;5065341;28;20574;-74
2022/08/12 05:04:46;;;;;;;2.40;1.10;;;17.20;99.20;;;;;;5061375;28;20032;-74
2022/08/12 05:07:12;;;;;;;2.75;1.13;;;17.20;99.20;;;;;;5098447;28;20553;-81
2022/08/12 05:09:38;;;;;;;3.65;1.80;;;17.30;99.10;;;;;;5095984;28;20121;-75
2022/08/12 05:12:04;;;;;;;4.07;1.50;;;17.40;99.00;;;;;;5064192;28;20567;-74
2022/08/12 05:14:30;;;;;;;3.00;1.40;;;17.40;99.00;;;;;;5088280;28;20382;-75
2022/08/12 05:16:56;;;;;;;4.10;1.45;;;17.40;98.90;;;;;;5075739;28;20047;-74
2022/08/12 05:19:21;;;;;;;3.20;1.33;;;17.50;98.80;;;;;;5081187;28;20105;-75
2022/08/12 05:21:47;;;;;;;2.30;1.38;;;17.60;98.80;;;;;;5097177;28;20052;-74
2022/08/12 05:24:13;;;;;;;2.60;1.08;;;17.50;98.60;;;;;;5085929;28;20032;-74
2022/08/12 05:26:39;;;;;;;2.72;1.30;;;17.60;98.70;;;;;;5076108;28;20643;-74
2022/08/12 05:29:06;;;;;;;2.08;1.10;;;17.60;99.00;;;;;;5076935;28;20035;-75
2022/08/12 05:31:32;;;;;;;1.70;1.00;;;17.60;98.60;;;;;;5096297;28;20047;-75
2022/08/12 05:33:57;;;;;;;2.75;1.45;;;17.70;98.60;;;;;;5070477;28;20040;-75
2022/08/12 05:36:23;;;;;;;1.75;0.80;;;17.70;98.60;;;;;;5096337;28;20039;-74
2022/08/12 05:38:55;;;;;;;1.75;1.17;;;17.70;98.80;;;;;;5078550;28;20523;-74
2022/08/12 05:41:24;;;;;;;1.60;1.00;;;17.80;98.60;;;;;;5078940;28;20075;-74
2022/08/12 05:43:51;;;;;;;2.30;1.33;;;17.90;98.60;;;;;;5082876;28;20497;-74
2022/08/12 05:46:21;;;;;;;4.90;1.30;;;18.00;98.60;;;;;;5068798;28;20067;-70
2022/08/12 05:48:48;;;;;;;3.63;1.10;;;18.20;98.40;;;;;;5088754;28;20043;-71
2022/08/12 05:51:14;;;;;;;2.10;1.13;;;18.10;98.30;;;;;;5088430;28;20045;-72
2022/08/12 05:53:41;;;;;;;1.85;0.90;;;18.20;98.40;;;;;;5086314;28;20032;-74
2022/08/12 05:56:20;;;;;;;2.33;1.20;;;18.20;98.40;;;;;;5080909;28;20048;-75
2022/08/12 05:58:47;;;;;;;2.10;1.20;;;18.30;98.70;;;;;;5079255;28;21418;-75
2022/08/12 06:01:13;;;;;;;2.95;1.05;;;18.20;98.50;;;;;;5099293;28;20044;-74
2022/08/12 06:03:39;;;;;;;2.55;1.40;;;18.20;98.50;;;;;;5085503;28;20046;-75
2022/08/12 06:06:05;;;;;;;2.05;1.23;;;18.30;98.40;;;;;;5068184;28;20408;-74
2022/08/12 06:08:34;;;;;;;2.35;1.17;;;18.30;98.30;;;;;;5087451;28;20537;-74
2022/08/12 06:11:01;;;;;;;2.28;1.15;;;18.30;98.30;;;;;;5087912;28;20085;-74
2022/08/12 06:13:28;;;;;;;3.05;0.93;;;18.30;98.10;;;;;;5104812;28;20115;-74
2022/08/12 06:15:53;;;;;;;2.28;1.20;;;18.40;98.10;;;;;;5086299;28;20040;-74
2022/08/12 06:18:19;;;;;;;2.35;1.17;;;18.40;98.00;;;;;;5105575;28;20085;-74
2022/08/12 06:20:48;;;;;;;2.25;1.10;;;18.40;97.90;;;;;;5089078;28;20060;-75
2022/08/12 06:23:14;;;;;;;2.42;1.10;;;18.50;97.80;;;;;;5086368;28;20104;-74
2022/08/12 06:25:42;;;;;;;2.08;1.20;;;18.50;97.80;;;;;;5106242;28;20040;-74
2022/08/12 06:28:19;;;;;;;2.67;1.35;;;18.50;97.70;;;;;;5104488;28;20600;-74
2022/08/12 06:30:46;;;;;;;3.63;1.10;;;18.60;97.90;;;;;;5105793;28;20048;-74
2022/08/12 06:33:12;;;;;;;2.42;1.35;;;18.70;98.30;;;;;;5105221;28;20040;-74
2022/08/12 06:35:40;;;;;;;1.20;0.80;;;19.60;97.60;;;;;;5106029;28;20040;-74
2022/08/12 06:38:17;;;;;;;1.85;1.10;;;20.60;95.30;;;;;;5103937;28;20412;-74
2022/08/12 06:43:30;;;;;;;2.67;1.40;;;21.20;93.70;;;;;;5085498;28;20434;-75
2022/08/12 06:45:56;;;;;;;1.98;0.88;;;21.20;94.00;;;;;;5089151;28;20047;-74
2022/08/12 06:48:27;;;;;;;1.67;0.90;;;21.00;94.30;;;;;;5105770;28;20539;-74
2022/08/12 06:50:56;;;;;;;1.38;0.90;;;20.90;94.20;;;;;;5071684;28;20044;-74
2022/08/12 06:53:24;;;;;;;2.25;1.17;;;20.70;94.40;;;;;;5084065;28;20048;-74
2022/08/12 06:55:51;;;;;;;2.17;1.00;;;20.80;94.50;;;;;;5070556;28;20401;-74
2022/08/12 06:58:19;;;;;;;1.25;0.73;;;20.70;94.40;;;;;;5106022;28;20044;-74
2022/08/12 07:00:45;;;;;;;1.65;0.82;;;20.70;94.30;;;;;;5105999;28;20050;-74
2022/08/12 07:03:16;;;;;;;1.98;1.13;;;20.70;94.20;;;;;;5088825;28;20448;-74
2022/08/12 07:05:42;;;;;;;1.42;0.90;;;20.70;94.00;;;;;;5088331;28;20046;-74
2022/08/12 07:08:09;;;;;;;1.73;0.82;;;20.70;93.80;;;;;;5104265;28;20044;-74
2022/08/12 07:10:41;;;;;;;1.85;0.98;;;20.70;93.70;;;;;;5068645;28;20032;-74
2022/08/12 07:13:07;;;;;;;1.85;1.13;;;20.70;93.40;;;;;;5105090;28;20498;-74
2022/08/12 07:15:34;;;;;;;2.13;1.20;;;20.70;93.30;;;;;;5104089;28;20043;-74
2022/08/12 07:18:05;;;;;;;3.60;1.10;;;20.70;93.40;;;;;;5104410;28;20036;-74
2022/08/12 07:20:34;;;;;;;2.22;1.17;;;20.70;93.20;;;;;;5104898;28;20059;-74
2022/08/12 07:23:03;;;;;;;2.15;1.15;;;20.70;93.20;;;;;;5103441;28;20467;-74
2022/08/12 07:25:30;;;;;;;3.53;1.00;;;20.70;93.10;;;;;;5087715;28;20046;-74
2022/08/12 07:28:00;;;;;;;1.60;1.00;;;20.80;93.00;;;;;;5085522;28;20051;-74
2022/08/12 07:30:30;;;;;;;1.73;1.00;;;20.80;92.80;;;;;;5101862;28;21705;-74
2022/08/12 07:32:57;;;;;;;2.28;1.25;;;20.90;92.50;;;;;;5104048;28;20053;-74
2022/08/12 07:35:23;;;;;;;2.28;1.40;;;20.90;92.20;;;;;;5104464;28;20047;-74
2022/08/12 07:37:49;;;;;;;2.33;1.00;;;20.90;92.00;;;;;;5102712;28;20040;-74
2022/08/12 07:40:15;;;;;;;1.58;0.80;;;20.90;91.80;;;;;;5059744;28;20071;-74
2022/08/12 07:42:42;;;;;;;1.60;1.10;;;21.00;91.70;;;;;;5087919;28;20497;-74
2022/08/12 07:45:08;;;;;;;1.88;1.10;;;21.00;91.50;;;;;;5105115;28;20443;-74
2022/08/12 07:47:35;;;;;;;2.63;1.17;;;21.00;91.30;;;;;;5086557;28;20134;-74
2022/08/12 07:50:03;;;;;;;2.88;0.93;;;21.10;91.10;;;;;;5104264;28;20051;-74
2022/08/12 07:52:29;;;;;;;2.05;1.17;;;21.10;90.80;;;;;;5086413;28;20118;-74
2022/08/12 07:54:55;;;;;;;3.58;1.08;;;21.20;90.60;;;;;;5069571;28;20142;-74
2022/08/12 07:57:20;;;;;;;2.08;1.30;;;21.30;90.50;;;;;;5087694;28;20089;-74
2022/08/12 07:59:47;;;;;;;4.95;1.20;;;21.30;90.20;;;;;;5087685;28;20043;-74
2022/08/12 08:02:12;;;;;;;1.75;1.00;;;21.40;89.50;;;;;;5085053;28;20417;-74
2022/08/12 08:04:56;;;;;;;2.58;1.27;;;21.40;89.40;;;;;;5084160;28;20040;-74
2022/08/12 08:07:28;;;;;;;1.65;1.05;;;21.50;89.60;;;;;;5085815;28;20267;-74
2022/08/12 08:09:58;;;;;;;1.42;1.00;;;21.60;88.70;;;;;;5087081;28;20076;-74
2022/08/12 08:15:09;;;;;;;1.65;1.00;;;21.70;87.60;;;;;;5084101;28;20040;-74
2022/08/12 08:17:36;;;;;;;1.50;0.90;;;21.70;88.00;;;;;;5087675;28;20063;-74
2022/08/12 08:20:04;;;;;;;1.80;1.15;;;21.80;87.40;;;;;;5104271;28;20052;-74
2022/08/12 08:22:31;;;;;;;2.38;1.23;;;21.80;86.70;;;;;;5081174;28;20394;-74
2022/08/12 08:24:57;;;;;;;2.50;1.10;;;21.80;85.90;;;;;;5102891;28;20039;-74
2022/08/12 08:27:23;;;;;;;1.77;1.10;;;21.90;85.60;;;;;;5086455;28;20044;-74
2022/08/12 08:29:49;;;;;;;1.77;1.02;;;21.80;85.30;;;;;;5087083;28;20048;-74
2022/08/12 08:32:15;;;;;;;1.67;1.10;;;21.90;85.30;;;;;;5087722;28;20040;-74
2022/08/12 08:34:41;;;;;;;2.08;1.10;;;21.90;85.00;;;;;;5087727;28;20086;-74
2022/08/12 08:37:06;;;;;;;1.92;1.10;;;22.00;84.50;;;;;;5102484;28;20402;-74
2022/08/12 08:39:33;;;;;;;1.90;1.02;;;22.10;83.80;;;;;;5099795;28;20477;-74
2022/08/12 08:45:11;;;;;;;2.67;1.15;;;22.20;83.90;;;;;;5049115;28;20041;-74
2022/08/12 08:47:42;;;;;;;2.13;1.20;;;22.40;84.20;;;;;;5032427;28;20406;-74
2022/08/12 08:50:09;;;;;;;2.33;1.42;;;22.50;83.80;;;;;;5068626;28;20189;-74
2022/08/12 08:52:36;;;;;;;2.30;1.27;;;22.50;83.70;;;;;;5084561;28;20490;-74
2022/08/12 08:55:02;;;;;;;3.67;1.40;;;22.60;83.60;;;;;;5084748;28;20169;-74
2022/08/12 08:57:28;;;;;;;2.70;1.27;;;22.70;83.70;;;;;;5087474;28;20035;-74
2022/08/12 08:59:53;;;;;;;1.33;0.80;;;22.90;82.80;;;;;;5107240;28;20043;-74
2022/08/12 09:02:19;;;;;;;2.88;1.33;;;22.90;83.00;;;;;;5089716;28;20612;-73
2022/08/12 09:04:44;;;;;;;1.50;0.90;;;22.90;83.50;;;;;;5107143;28;20040;-74
2022/08/12 09:07:11;;;;;;;7.35;1.20;;;22.90;83.20;;;;;;5107413;28;20409;-74
2022/08/12 09:09:37;;;;;;;1.83;1.15;;;23.00;83.00;;;;;;5104595;28;20334;-74
2022/08/12 09:14:47;;;;;;;2.92;1.13;;;23.10;81.60;;;;;;5088630;28;20048;-74
2022/08/12 09:17:13;;;;;;;2.30;1.42;;;23.20;80.40;;;;;;5108082;28;20048;-73
2022/08/12 09:19:40;;;;;;;2.00;1.17;;;23.30;79.40;;;;;;5106759;28;20119;-74
2022/08/12 09:22:07;;;;;;;1.63;1.00;;;23.30;78.80;;;;;;5105900;28;20040;-74
2022/08/12 09:24:33;;;;;;;2.22;1.30;;;23.30;77.50;;;;;;5103275;28;20044;-74
2022/08/12 09:26:58;;;;;;;1.60;1.00;;;23.30;76.50;;;;;;5090775;28;20304;-73
2022/08/12 09:29:24;;;;;;;2.95;1.23;;;23.40;75.60;;;;;;5090411;28;20039;-74
2022/08/12 09:31:52;;;;;;;1.70;1.00;;;23.50;75.20;;;;;;5090403;28;20040;-74
2022/08/12 09:34:18;;;;;;;1.67;1.08;;;23.50;73.90;;;;;;5089726;28;20032;-74
2022/08/12 09:36:45;;;;;;;1.52;0.88;;;23.60;72.30;;;;;;5089795;28;20043;-74
2022/08/12 09:39:12;;;;;;;2.05;0.95;;;23.70;70.90;;;;;;5104943;28;20040;-74
2022/08/12 09:41:43;;;;;;;2.63;1.25;;;23.80;70.90;;;;;;5104699;27;20043;-74
2022/08/12 09:46:54;;;;;;;3.97;1.10;;;23.90;70.10;;;;;;5090244;28;20048;-74
2022/08/12 09:49:26;;;;;;;3.83;1.05;;;23.90;69.30;;;;;;5106618;28;20036;-74
2022/08/12 09:51:53;;;;;;;2.05;1.20;;;23.90;69.30;;;;;;5107243;28;20040;-73
2022/08/12 09:54:24;;;;;;;1.67;1.10;;;24.00;67.30;;;;;;5101512;28;20134;-74
2022/08/12 09:56:52;;;;;;;3.33;1.23;;;24.10;67.50;;;;;;5104124;28;20039;-73
2022/08/12 09:59:17;;;;;;;2.00;1.10;;;24.10;67.30;;;;;;5106620;28;20443;-74
2022/08/12 10:01:43;;;;;;;2.30;0.98;;;24.10;66.50;;;;;;5107063;28;20490;-74
2022/08/12 10:04:09;;;;;;;2.05;1.15;;;24.30;65.50;;;;;;5106576;28;20121;-73
2022/08/12 10:06:38;;;;;;;2.03;0.90;;;24.40;64.80;;;;;;5089573;28;20036;-73
2022/08/12 10:09:05;;;;;;;3.20;0.93;;;24.50;64.00;;;;;;5081921;28;20039;-73
2022/08/12 10:14:15;;;;;;;1.90;1.10;;;24.60;63.60;;;;;;5088857;28;20068;-73
2022/08/12 10:16:44;;;;;;;3.00;1.30;;;24.60;62.70;;;;;;5106670;28;20102;-74
2022/08/12 10:19:11;;;;;;;3.10;1.20;;;24.60;62.80;;;;;;5089354;28;20036;-74
2022/08/12 10:21:40;;;;;;;3.17;1.08;;;24.60;62.70;;;;;;5105846;28;20064;-73
2022/08/12 10:24:09;;;;;;;3.63;1.33;;;24.60;62.30;;;;;;5101836;28;20508;-73
2022/08/12 10:29:38;;;;;;;1.90;0.98;;;24.70;61.50;;;;;;5076439;28;20273;-73
2022/08/12 10:32:24;;;;;;;3.13;0.90;;;24.70;60.50;;;;;;5106467;28;20079;-73
2022/08/12 10:34:50;;;;;;;1.20;0.82;;;24.80;55.50;;;;;;5086245;28;20126;-73
2022/08/12 10:37:17;;;;;;;1.67;0.90;;;24.90;59.50;;;;;;5106500;28;20123;-73
2022/08/12 10:39:44;;;;;;;1.60;0.90;;;25.00;58.50;;;;;;5088341;28;20397;-73
2022/08/12 10:45:05;;;;;;;1.10;0.63;;;25.00;57.00;;;;;;5087019;28;20043;-73
2022/08/12 10:47:33;;;;;;;1.75;1.08;;;25.10;57.50;;;;;;5087635;28;20125;-73
2022/08/12 10:49:59;;;;;;;3.05;1.00;;;25.10;57.80;;;;;;5102360;28;20036;-74
2022/08/12 10:52:30;;;;;;;2.40;1.15;;;25.20;57.60;;;;;;5088213;28;20047;-73
2022/08/12 10:54:57;;;;;;;2.08;1.08;;;25.20;57.10;;;;;;5088423;28;20040;-73
2022/08/12 10:57:25;;;;;;;1.15;0.70;;;25.30;57.00;;;;;;5088568;28;20489;-74
2022/08/12 10:59:56;;;;;;;1.45;0.77;;;25.30;57.00;;;;;;5088750;28;20067;-73
2022/08/12 11:02:23;;;;;;;1.15;0.70;;;25.30;56.90;;;;;;5087812;28;20043;-74
2022/08/12 11:04:49;;;;;;;1.75;0.88;;;25.30;56.50;;;;;;5104444;28;20062;-73
2022/08/12 11:07:15;;;;;;;2.92;1.00;;;25.30;56.50;;;;;;5084329;28;20389;-73
2022/08/12 11:09:41;;;;;;;1.55;0.80;;;25.20;56.40;;;;;;5070659;28;20051;-73
2022/08/12 11:12:06;;;;;;;1.45;0.85;;;25.20;56.40;;;;;;5102474;28;20039;-73
2022/08/12 11:14:34;;;;;;;1.73;1.00;;;25.30;55.70;;;;;;5087486;28;20036;-73
2022/08/12 11:17:03;;;;;;;1.92;0.90;;;25.30;55.70;;;;;;5089953;28;20270;-73
2022/08/12 11:19:31;;;;;;;1.70;1.00;;;25.30;56.40;;;;;;5087587;28;20085;-73
2022/08/12 11:21:57;;;;;;;2.95;1.27;;;25.40;56.30;;;;;;5088072;28;20096;-73
2022/08/12 11:24:24;;;;;;;1.52;0.70;;;25.40;56.50;;;;;;5087524;28;20476;-73
2022/08/12 11:26:51;;;;;;;2.70;0.85;;;25.40;56.10;;;;;;5086264;28;20036;-73
2022/08/12 11:29:18;;;;;;;3.53;0.80;;;25.40;55.80;;;;;;5088354;28;20036;-73
2022/08/12 11:31:44;;;;;;;1.23;0.68;;;25.40;55.50;;;;;;5105006;28;20047;-73
2022/08/12 11:34:11;;;;;;;1.40;0.80;;;25.50;55.30;;;;;;5104854;28;20055;-73
2022/08/12 11:36:37;;;;;;;1.10;0.80;;;25.60;55.50;;;;;;5104888;28;20077;-73
2022/08/12 11:39:03;;;;;;;3.40;1.00;;;25.60;55.30;;;;;;5104037;28;20046;-73
2022/08/12 11:41:29;;;;;;;2.08;1.25;;;25.60;55.10;;;;;;5085911;28;20035;-73
2022/08/12 11:43:54;;;;;;;1.77;0.80;;;25.70;54.70;;;;;;5103830;28;20185;-73
2022/08/12 11:46:20;;;;;;;2.40;1.00;;;25.70;54.90;;;;;;5104708;28;20072;-73
2022/08/12 11:48:46;;;;;;;1.30;0.80;;;25.80;55.00;;;;;;5088322;28;20036;-73
2022/08/12 11:51:12;;;;;;;2.35;1.13;;;25.80;54.90;;;;;;5087810;28;20040;-73
2022/08/12 11:53:37;;;;;;;1.63;0.80;;;25.80;54.80;;;;;;5086858;28;20401;-73
2022/08/12 11:56:06;;;;;;;1.58;0.98;;;25.80;54.50;;;;;;5102334;28;20034;-73
2022/08/12 11:58:33;;;;;;;1.88;0.90;;;25.80;53.70;;;;;;5070031;28;20097;-73
2022/08/12 12:00:59;;;;;;;1.70;0.82;;;25.90;54.60;;;;;;5087876;28;20050;-73
2022/08/12 12:03:25;;;;;;;2.42;1.00;;;25.90;53.80;;;;;;5086495;28;20040;-73
2022/08/12 12:05:50;;;;;;;1.10;0.80;;;25.90;53.70;;;;;;5085673;28;20040;-73
2022/08/12 12:08:23;;;;;;;1.67;0.93;;;25.80;54.10;;;;;;5086836;28;20093;-73
2022/08/12 12:10:50;;;;;;;1.67;1.00;;;25.90;52.30;;;;;;5087401;28;20044;-73
2022/08/12 12:13:20;;;;;;;2.03;1.15;;;25.90;52.90;;;;;;5088118;28;20040;-73
2022/08/12 12:15:46;;;;;;;1.88;1.02;;;26.00;53.10;;;;;;5088930;28;20036;-73
2022/08/12 12:18:31;;;;;;;2.10;1.10;;;26.10;52.50;;;;;;5087551;28;20044;-73
2022/08/12 12:20:59;;;;;;;2.30;1.20;;;26.20;50.40;;;;;;5087070;28;20117;-73
2022/08/12 12:23:25;;;;;;;1.73;1.15;;;26.10;52.20;;;;;;5085732;28;20131;-74
2022/08/12 12:25:51;;;;;;;1.58;0.82;;;26.20;52.40;;;;;;5087622;28;20058;-73
2022/08/12 12:28:17;;;;;;;3.05;0.90;;;26.20;52.50;;;;;;5100645;28;20044;-73
2022/08/12 12:30:43;;;;;;;1.63;0.93;;;26.20;52.50;;;;;;5087363;28;20062;-73
2022/08/12 12:33:10;;;;;;;1.83;0.80;;;26.20;52.40;;;;;;5090873;28;20111;-73
2022/08/12 12:35:37;;;;;;;2.83;1.15;;;26.10;52.40;;;;;;5108389;28;20078;-73
2022/08/12 12:38:05;;;;;;;1.80;0.80;;;26.20;52.70;;;;;;5106733;28;20149;-73
2022/08/12 12:40:32;;;;;;;1.60;0.80;;;26.20;52.40;;;;;;5105622;28;20035;-73
2022/08/12 12:42:58;;;;;;;1.40;0.80;;;26.20;52.40;;;;;;5108676;28;20194;-73
2022/08/12 12:45:25;;;;;;;2.28;1.25;;;26.20;52.30;;;;;;5108244;28;20044;-73
2022/08/12 12:47:57;;;;;;;2.22;1.02;;;26.20;52.10;;;;;;5108166;28;20432;-74
2022/08/12 12:50:25;;;;;;;1.63;1.00;;;26.20;52.20;;;;;;5090994;28;20036;-73
2022/08/12 12:52:51;;;;;;;2.10;1.00;;;26.20;52.20;;;;;;5090108;28;20044;-73
2022/08/12 12:55:17;;;;;;;2.03;1.10;;;26.20;52.10;;;;;;5105073;28;20185;-73
2022/08/12 12:57:43;;;;;;;3.45;1.10;;;26.30;52.00;;;;;;5108150;28;20084;-73
2022/08/12 13:00:16;;;;;;;1.92;1.00;;;26.30;52.00;;;;;;5091079;28;20130;-73
2022/08/12 13:02:54;;;;;;;2.10;1.00;;;26.20;52.10;;;;;;5090593;28;20044;-73
2022/08/12 13:05:35;;;;;;;1.67;1.17;;;26.30;52.10;;;;;;5069420;28;20390;-73
2022/08/12 13:08:03;;;;;;;2.35;1.13;;;26.30;51.60;;;;;;5107068;28;20293;-73
2022/08/12 13:10:30;;;;;;;1.70;1.10;;;26.30;52.20;;;;;;5105004;28;20478;-73
2022/08/12 13:12:56;;;;;;;2.47;1.00;;;26.30;52.20;;;;;;5089825;28;20097;-73
2022/08/12 13:15:22;;;;;;;1.30;1.05;;;26.40;52.30;;;;;;5090719;28;20039;-73
2022/08/12 13:17:49;;;;;;;2.35;1.20;;;26.40;52.30;;;;;;5090952;28;20094;-73
2022/08/12 13:20:17;;;;;;;2.05;1.13;;;26.40;52.20;;;;;;5090883;28;20105;-73
2022/08/12 13:22:44;;;;;;;2.03;1.33;;;26.40;51.90;;;;;;5089949;28;20052;-73
2022/08/12 13:25:10;;;;;;;1.95;1.15;;;26.50;51.50;;;;;;5107220;28;20040;-73
2022/08/12 13:27:40;;;;;;;2.17;1.08;;;26.60;51.40;;;;;;5103823;28;20086;-73
2022/08/12 13:30:08;;;;;;;1.48;1.00;;;26.60;50.70;;;;;;5090339;28;20512;-73
2022/08/12 13:32:36;;;;;;;2.10;1.38;;;26.80;50.70;;;;;;5089209;28;20051;-73
2022/08/12 13:35:03;;;;;;;1.77;1.10;;;26.90;50.50;;;;;;5104957;28;20058;-73
2022/08/12 13:37:29;;;;;;;1.52;1.10;;;27.00;50.30;;;;;;5089855;28;20076;-73
2022/08/12 13:39:54;;;;;;;1.83;1.00;;;27.00;50.30;;;;;;5088781;28;20075;-73
2022/08/12 13:42:23;;;;;;;1.70;0.85;;;27.00;50.20;;;;;;5089465;28;20036;-73
2022/08/12 13:44:51;;;;;;;2.25;1.17;;;27.00;50.10;;;;;;5090250;28;20119;-74
2022/08/12 13:47:20;;;;;;;1.52;1.00;;;27.00;50.20;;;;;;5090042;28;20036;-73
2022/08/12 13:49:50;;;;;;;1.23;0.90;;;26.90;50.30;;;;;;5086924;28;20134;-73
2022/08/12 13:52:19;;;;;;;1.92;1.10;;;26.90;50.80;;;;;;5085906;28;20043;-73
2022/08/12 13:54:46;;;;;;;2.33;1.00;;;26.90;50.90;;;;;;5069068;28;20093;-74
2022/08/12 13:57:14;;;;;;;1.90;1.20;;;26.90;50.90;;;;;;5090063;28;20646;-74
2022/08/12 13:59:42;;;;;;;1.70;1.20;;;26.90;50.60;;;;;;5089915;28;20524;-73
2022/08/12 14:02:12;;;;;;;3.15;1.30;;;26.90;50.60;;;;;;5089943;28;20050;-74
2022/08/12 14:04:39;;;;;;;1.80;1.20;;;27.00;50.30;;;;;;5090862;28;20367;-73
2022/08/12 14:07:05;;;;;;;2.28;1.10;;;27.00;50.00;;;;;;5088476;28;20054;-73
2022/08/12 14:10:34;;;;;;;2.28;1.00;;;27.20;49.80;;;;;;5102325;28;20162;-74
2022/08/12 14:12:17;;;;;;;1.85;1.13;;;27.20;49.40;;;;;;5104964;28;20493;-73
2022/08/12 14:14:49;;;;;;;3.50;1.15;;;27.20;49.40;;;;;;5106635;28;20052;-73
2022/08/12 14:17:18;;;;;;;2.03;1.08;;;27.20;49.50;;;;;;5106950;28;20114;-73
2022/08/12 14:20:12;;;;;;;2.33;1.30;;;27.30;49.40;;;;;;5072031;28;20523;-74
2022/08/12 14:22:30;;;;;;;1.50;0.93;;;27.30;49.40;;;;;;5088620;28;20044;-74
2022/08/12 14:24:57;;;;;;;2.13;1.40;;;27.30;49.50;;;;;;5084179;28;20048;-74
2022/08/12 14:27:24;;;;;;;1.35;0.90;;;27.40;49.50;;;;;;5089872;28;20473;-73
2022/08/12 14:29:52;;;;;;;1.88;1.15;;;27.40;49.00;;;;;;5088189;28;20386;-73
2022/08/12 14:32:18;;;;;;;2.38;1.45;;;27.50;49.00;;;;;;5071820;28;20036;-73
2022/08/12 14:34:46;;;;;;;2.42;1.17;;;27.40;48.90;;;;;;5106399;28;20032;-73
2022/08/12 14:37:11;;;;;;;3.13;1.35;;;27.50;48.70;;;;;;5090620;28;20115;-73
2022/08/12 14:39:37;;;;;;;1.40;0.98;;;27.40;48.80;;;;;;5103635;28;20648;-73